createdAt,value
2023-09-10T00:00:14.115Z,7.65
2023-09-10T00:00:36.699Z,7.64
2023-09-10T00:00:59.273Z,7.62
2023-09-10T00:01:21.665Z,7.62
2023-09-10T00:01:45.260Z,7.61
2023-09-10T00:02:07.932Z,7.60
2023-09-10T00:02:30.426Z,7.60
2023-09-10T00:02:52.944Z,7.58
2023-09-10T00:03:15.479Z,7.58
2023-09-10T00:03:38.227Z,7.57
2023-09-10T00:04:00.525Z,7.56
2023-09-10T00:04:22.893Z,7.55
2023-09-10T00:04:45.160Z,7.54
2023-09-10T00:05:09.253Z,7.52
2023-09-10T00:05:32.771Z,7.51
2023-09-10T00:05:55.167Z,7.50
2023-09-10T00:06:17.417Z,7.48
2023-09-10T00:06:40.094Z,7.46
2023-09-10T00:07:02.690Z,7.45
2023-09-10T00:07:24.975Z,7.44
2023-09-10T00:07:47.423Z,7.42
2023-09-10T00:08:09.793Z,7.41
2023-09-10T00:08:32.977Z,7.39
2023-09-10T00:08:55.203Z,7.37
2023-09-10T00:09:17.568Z,7.36
2023-09-10T00:09:40.234Z,7.35
2023-09-10T00:10:02.689Z,7.34
2023-09-10T00:10:24.875Z,7.33
2023-09-10T00:10:47.477Z,7.33
2023-09-10T00:11:09.796Z,7.32
2023-09-10T00:11:32.171Z,7.33
2023-09-10T00:11:54.410Z,7.34
2023-09-10T00:12:16.614Z,7.34
2023-09-10T00:12:38.821Z,7.36
2023-09-10T00:13:01.248Z,7.36
2023-09-10T00:13:23.903Z,7.37
2023-09-10T00:13:46.249Z,7.38
2023-09-10T00:14:08.716Z,7.39
2023-09-10T00:14:30.988Z,7.39
2023-09-10T00:14:53.643Z,7.39
2023-09-10T00:15:16.055Z,7.39
2023-09-10T00:15:38.612Z,7.38
2023-09-10T00:16:01.319Z,7.37
2023-09-10T00:16:23.893Z,7.37
2023-09-10T00:16:46.258Z,7.35
2023-09-10T00:17:08.781Z,7.34
2023-09-10T00:17:31.076Z,7.33
2023-09-10T00:17:53.753Z,7.32
2023-09-10T00:18:16.280Z,7.30
2023-09-10T00:18:38.845Z,7.29
2023-09-10T00:19:01.336Z,7.28
2023-09-10T00:19:23.565Z,7.26
2023-09-10T00:19:46.025Z,7.26
2023-09-10T00:20:09.601Z,7.25
2023-09-10T00:20:31.968Z,7.24
2023-09-10T00:20:54.366Z,7.23
2023-09-10T00:21:16.695Z,7.22
2023-09-10T00:21:39.302Z,7.22
2023-09-10T00:22:01.696Z,7.20
2023-09-10T00:22:23.958Z,7.19
2023-09-10T00:22:46.322Z,7.19
2023-09-10T00:23:09.007Z,7.18
2023-09-10T00:23:31.562Z,7.17
2023-09-10T00:23:53.770Z,7.17
2023-09-10T00:24:16.200Z,7.16
2023-09-10T00:24:38.552Z,7.15
2023-09-10T00:25:00.875Z,7.14
2023-09-10T00:25:23.353Z,7.13
2023-09-10T00:25:45.712Z,7.12
2023-09-10T00:26:08.875Z,7.11
2023-09-10T00:26:31.240Z,7.10
2023-09-10T00:26:53.556Z,7.09
2023-09-10T00:27:16.062Z,7.08
2023-09-10T00:27:38.373Z,7.08
2023-09-10T00:28:00.767Z,7.07
2023-09-10T00:28:23.863Z,7.08
2023-09-10T00:28:46.216Z,7.08
2023-09-10T00:29:08.569Z,7.10
2023-09-10T00:29:31.067Z,7.11
2023-09-10T00:29:53.280Z,7.13
2023-09-10T00:30:15.683Z,7.14
2023-09-10T00:30:38.559Z,7.16
2023-09-10T00:31:00.806Z,7.17
2023-09-10T00:31:23.184Z,7.19
2023-09-10T00:31:46.196Z,7.20
2023-09-10T00:32:08.622Z,7.21
2023-09-10T00:32:31.023Z,7.22
2023-09-10T00:32:53.511Z,7.24
2023-09-10T00:33:19.149Z,7.24
2023-09-10T00:33:41.557Z,7.25
2023-09-10T00:34:03.878Z,7.25
2023-09-10T00:34:27.146Z,7.25
2023-09-10T00:34:49.438Z,7.24
2023-09-10T00:35:12.114Z,7.23
2023-09-10T00:35:34.485Z,7.23
2023-09-10T00:35:56.941Z,7.23
2023-09-10T00:36:19.142Z,7.21
2023-09-10T00:36:41.536Z,7.21
2023-09-10T00:37:03.930Z,7.20
2023-09-10T00:37:26.334Z,7.19
2023-09-10T00:37:48.609Z,7.18
2023-09-10T00:38:11.187Z,7.17
2023-09-10T00:38:33.639Z,7.17
2023-09-10T00:38:56.390Z,7.17
2023-09-10T00:39:19.500Z,7.16
2023-09-10T00:39:41.753Z,7.16
2023-09-10T00:40:05.630Z,7.14
2023-09-10T00:40:27.933Z,7.14
2023-09-10T00:40:50.323Z,7.14
2023-09-10T00:41:12.658Z,7.13
2023-09-10T00:41:35.154Z,7.13
2023-09-10T00:41:57.365Z,7.12
2023-09-10T00:42:19.759Z,7.12
2023-09-10T00:42:42.160Z,7.12
2023-09-10T00:43:05.168Z,7.11
2023-09-10T00:43:27.564Z,7.10
2023-09-10T00:43:50.523Z,7.10
2023-09-10T00:44:13.085Z,7.09
2023-09-10T00:44:35.462Z,7.08
2023-09-10T00:44:57.802Z,7.07
2023-09-10T00:45:20.019Z,7.07
2023-09-10T00:45:42.315Z,7.06
2023-09-10T00:46:04.802Z,7.06
2023-09-10T00:46:27.378Z,7.06
2023-09-10T00:46:50.541Z,7.05
2023-09-10T00:47:12.943Z,7.05
2023-09-10T00:47:36.037Z,7.05
2023-09-10T00:47:58.530Z,7.05
2023-09-10T00:48:20.836Z,7.06
2023-09-10T00:48:43.088Z,7.07
2023-09-10T00:49:05.337Z,7.09
2023-09-10T00:49:28.939Z,7.10
2023-09-10T00:49:51.207Z,7.12
2023-09-10T00:50:16.502Z,7.14
2023-09-10T00:50:38.857Z,7.15
2023-09-10T00:51:01.231Z,7.17
2023-09-10T00:51:23.504Z,7.18
2023-09-10T00:51:46.812Z,7.20
2023-09-10T00:52:09.182Z,7.21
2023-09-10T00:52:31.700Z,7.21
2023-09-10T00:52:54.614Z,7.21
2023-09-10T00:53:16.911Z,7.21
2023-09-10T00:53:39.503Z,7.20
2023-09-10T00:54:01.981Z,7.20
2023-09-10T00:54:24.373Z,7.19
2023-09-10T00:54:46.767Z,7.19
2023-09-10T00:55:09.281Z,7.18
2023-09-10T00:55:34.146Z,7.17
2023-09-10T00:55:56.638Z,7.16
2023-09-10T00:56:18.957Z,7.15
2023-09-10T00:56:41.319Z,7.14
2023-09-10T00:57:04.446Z,7.14
2023-09-10T00:57:27.196Z,7.13
2023-09-10T00:57:49.638Z,7.12
2023-09-10T00:58:11.959Z,7.11
2023-09-10T00:58:34.249Z,7.10
2023-09-10T00:58:56.660Z,7.09
2023-09-10T00:59:18.984Z,7.08
2023-09-10T00:59:41.432Z,7.07
2023-09-10T01:00:09.821Z,7.06
2023-09-10T01:00:32.464Z,7.05
2023-09-10T01:00:54.686Z,7.05
2023-09-10T01:01:17.061Z,7.03
2023-09-10T01:01:40.105Z,7.03
2023-09-10T01:02:03.545Z,7.02
2023-09-10T01:02:26.311Z,7.01
2023-09-10T01:02:49.859Z,7.00
2023-09-10T01:03:12.477Z,7.00
2023-09-10T01:03:35.835Z,6.99
2023-09-10T01:03:58.338Z,6.98
2023-09-10T01:04:20.757Z,6.97
2023-09-10T01:04:43.128Z,6.97
2023-09-10T01:05:05.663Z,6.96
2023-09-10T01:05:28.850Z,6.95
2023-09-10T01:05:51.710Z,6.95
2023-09-10T01:06:14.574Z,6.96
2023-09-10T01:06:38.224Z,6.97
2023-09-10T01:07:00.923Z,6.97
2023-09-10T01:07:23.220Z,6.99
2023-09-10T01:07:45.915Z,7.00
2023-09-10T01:08:08.225Z,7.01
2023-09-10T01:08:30.420Z,7.03
2023-09-10T01:08:52.641Z,7.04
2023-09-10T01:09:14.906Z,7.06
2023-09-10T01:09:37.132Z,7.06
2023-09-10T01:09:59.580Z,7.06
2023-09-10T01:10:22.211Z,7.07
2023-09-10T01:10:54.168Z,7.06
2023-09-10T01:11:26.060Z,7.06
2023-09-10T01:11:48.500Z,7.04
2023-09-10T01:12:11.106Z,7.04
2023-09-10T01:12:37.072Z,7.02
2023-09-10T01:13:02.438Z,7.01
2023-09-10T01:13:32.293Z,6.99
2023-09-10T01:14:14.199Z,6.98
2023-09-10T01:14:42.459Z,6.96
2023-09-10T01:15:16.236Z,6.94
2023-09-10T01:15:58.764Z,6.93
2023-09-10T01:16:38.788Z,6.91
2023-09-10T01:17:11.347Z,6.90
2023-09-10T01:18:09.324Z,6.88
2023-09-10T01:18:31.621Z,6.87
2023-09-10T01:18:57.841Z,6.86
2023-09-10T01:19:26.582Z,6.85
2023-09-10T01:19:51.673Z,6.84
2023-09-10T01:20:34.871Z,6.83
2023-09-10T01:21:15.722Z,6.81
2023-09-10T01:21:38.018Z,6.79
2023-09-10T01:22:12.469Z,6.78
2023-09-10T01:22:40.731Z,6.78
2023-09-10T01:23:06.115Z,6.78
2023-09-10T01:23:47.423Z,6.79
2023-09-10T01:24:19.834Z,6.81
2023-09-10T01:24:51.858Z,6.84
2023-09-10T01:25:14.184Z,6.86
2023-09-10T01:25:36.749Z,6.88
2023-09-10T01:25:59.338Z,6.90
2023-09-10T01:26:21.670Z,6.90
2023-09-10T01:26:44.006Z,6.92
2023-09-10T01:27:06.263Z,6.92
2023-09-10T01:27:28.709Z,6.92
2023-09-10T01:27:51.100Z,6.93
2023-09-10T01:28:13.427Z,6.92
2023-09-10T01:28:35.665Z,6.92
2023-09-10T01:28:58.310Z,6.91
2023-09-10T01:29:20.808Z,6.90
2023-09-10T01:29:44.121Z,6.90
2023-09-10T01:30:10.538Z,6.88
2023-09-10T01:30:33.219Z,6.87
2023-09-10T01:30:55.501Z,6.87
2023-09-10T01:31:19.188Z,6.86
2023-09-10T01:31:42.267Z,6.85
2023-09-10T01:32:06.200Z,6.84
2023-09-10T01:32:31.244Z,6.83
2023-09-10T01:32:56.041Z,6.82
2023-09-10T01:33:36.482Z,6.81
2023-09-10T01:34:00.007Z,6.80
2023-09-10T01:34:22.711Z,6.80
2023-09-10T01:34:52.626Z,6.79
2023-09-10T01:35:21.131Z,6.78
2023-09-10T01:35:46.981Z,6.77
2023-09-10T01:36:21.688Z,6.76
2023-09-10T01:36:44.406Z,6.75
2023-09-10T01:37:17.297Z,6.74
2023-09-10T01:37:43.546Z,6.73
2023-09-10T01:38:08.533Z,6.72
2023-09-10T01:38:37.575Z,6.72
2023-09-10T01:39:03.148Z,6.71
2023-09-10T01:39:26.495Z,6.70
2023-09-10T01:39:49.814Z,6.69
2023-09-10T01:40:13.325Z,6.69
2023-09-10T01:40:36.458Z,6.69
2023-09-10T01:41:03.100Z,6.70
2023-09-10T01:41:25.615Z,6.71
2023-09-10T01:41:48.659Z,6.72
2023-09-10T01:42:10.962Z,6.74
2023-09-10T01:42:33.958Z,6.76
2023-09-10T01:42:56.545Z,6.78
2023-09-10T01:43:19.345Z,6.79
2023-09-10T01:43:41.997Z,6.80
2023-09-10T01:44:04.403Z,6.82
2023-09-10T01:44:26.986Z,6.83
2023-09-10T01:44:49.188Z,6.83
2023-09-10T01:45:11.690Z,6.84
2023-09-10T01:45:35.266Z,6.84
2023-09-10T01:45:57.610Z,6.84
2023-09-10T01:46:19.982Z,6.83
2023-09-10T01:46:43.035Z,6.83
2023-09-10T01:47:05.711Z,6.82
2023-09-10T01:47:28.123Z,6.81
2023-09-10T01:47:50.697Z,6.81
2023-09-10T01:48:13.011Z,6.80
2023-09-10T01:48:35.577Z,6.79
2023-09-10T01:48:57.973Z,6.78
2023-09-10T01:49:20.377Z,6.77
2023-09-10T01:49:42.720Z,6.76
2023-09-10T01:50:06.083Z,6.75
2023-09-10T01:50:31.610Z,6.74
2023-09-10T01:50:54.679Z,6.73
2023-09-10T01:51:17.833Z,6.73
2023-09-10T01:51:40.110Z,6.72
2023-09-10T01:52:02.408Z,6.71
2023-09-10T01:52:24.779Z,6.69
2023-09-10T01:52:47.517Z,6.69
2023-09-10T01:53:10.024Z,6.67
2023-09-10T01:53:32.340Z,6.67
2023-09-10T01:53:54.908Z,6.66
2023-09-10T01:54:17.137Z,6.66
2023-09-10T01:54:39.334Z,6.64
2023-09-10T01:55:01.588Z,6.63
2023-09-10T01:55:23.962Z,6.63
2023-09-10T01:55:48.739Z,6.62
2023-09-10T01:56:11.256Z,6.61
2023-09-10T01:56:33.713Z,6.61
2023-09-10T01:56:56.622Z,6.60
2023-09-10T01:57:19.037Z,6.59
2023-09-10T01:57:41.296Z,6.58
2023-09-10T01:58:03.584Z,6.58
2023-09-10T01:58:25.924Z,6.57
2023-09-10T01:58:48.254Z,6.58
2023-09-10T01:59:10.739Z,6.58
2023-09-10T01:59:33.922Z,6.60
2023-09-10T01:59:56.158Z,6.60
2023-09-10T02:00:18.619Z,6.61
2023-09-10T02:00:41.323Z,6.62
2023-09-10T02:01:04.026Z,6.64
2023-09-10T02:01:26.453Z,6.66
2023-09-10T02:01:48.796Z,6.67
2023-09-10T02:02:11.226Z,6.67
2023-09-10T02:02:33.740Z,6.69
2023-09-10T02:02:56.647Z,6.69
2023-09-10T02:03:19.324Z,6.70
2023-09-10T02:03:42.571Z,6.70
2023-09-10T02:04:05.573Z,6.69
2023-09-10T02:04:28.107Z,6.69
2023-09-10T02:04:50.514Z,6.67
2023-09-10T02:05:12.966Z,6.67
2023-09-10T02:05:35.387Z,6.66
2023-09-10T02:06:00.314Z,6.64
2023-09-10T02:06:22.961Z,6.64
2023-09-10T02:06:45.240Z,6.62
2023-09-10T02:07:07.713Z,6.61
2023-09-10T02:07:30.112Z,6.61
2023-09-10T02:07:52.570Z,6.61
2023-09-10T02:08:16.395Z,6.59
2023-09-10T02:08:39.200Z,6.58
2023-09-10T02:09:01.880Z,6.58
2023-09-10T02:09:24.410Z,6.57
2023-09-10T02:09:47.290Z,6.56
2023-09-10T02:10:09.687Z,6.55
2023-09-10T02:10:33.167Z,6.54
2023-09-10T02:10:55.607Z,6.53
2023-09-10T02:11:18.082Z,6.53
2023-09-10T02:11:40.480Z,6.52
2023-09-10T02:12:03.021Z,6.52
2023-09-10T02:12:26.169Z,6.50
2023-09-10T02:12:48.423Z,6.50
2023-09-10T02:13:10.690Z,6.49
2023-09-10T02:13:33.296Z,6.48
2023-09-10T02:13:56.135Z,6.47
2023-09-10T02:14:18.573Z,6.46
2023-09-10T02:14:41.000Z,6.46
2023-09-10T02:15:06.740Z,6.45
2023-09-10T02:15:29.884Z,6.44
2023-09-10T02:15:52.270Z,6.43
2023-09-10T02:16:14.714Z,6.43
2023-09-10T02:16:37.390Z,6.42
2023-09-10T02:16:59.985Z,6.42
2023-09-10T02:17:22.546Z,6.43
2023-09-10T02:17:46.888Z,6.44
2023-09-10T02:18:10.012Z,6.45
2023-09-10T02:18:32.370Z,6.46
2023-09-10T02:18:54.739Z,6.48
2023-09-10T02:19:17.136Z,6.49
2023-09-10T02:19:39.387Z,6.51
2023-09-10T02:20:01.889Z,6.52
2023-09-10T02:20:24.439Z,6.54
2023-09-10T02:20:46.825Z,6.56
2023-09-10T02:21:10.809Z,6.57
2023-09-10T02:21:33.271Z,6.58
2023-09-10T02:21:56.590Z,6.58
2023-09-10T02:22:19.082Z,6.59
2023-09-10T02:22:41.512Z,6.59
2023-09-10T02:23:04.247Z,6.59
2023-09-10T02:23:27.254Z,6.59
2023-09-10T02:23:49.573Z,6.59
2023-09-10T02:24:11.924Z,6.59
2023-09-10T02:24:34.189Z,6.58
2023-09-10T02:24:56.405Z,6.58
2023-09-10T02:25:18.807Z,6.58
2023-09-10T02:25:41.168Z,6.57
2023-09-10T02:26:03.771Z,6.56
2023-09-10T02:26:26.307Z,6.56
2023-09-10T02:26:48.819Z,6.56
2023-09-10T02:27:11.284Z,6.56
2023-09-10T02:27:33.692Z,6.55
2023-09-10T02:27:57.304Z,6.54
2023-09-10T02:28:24.861Z,6.55
2023-09-10T02:28:47.412Z,6.54
2023-09-10T02:29:09.834Z,6.54
2023-09-10T02:29:32.214Z,6.53
2023-09-10T02:29:54.613Z,6.53
2023-09-10T02:30:16.813Z,6.53
2023-09-10T02:30:39.202Z,6.52
2023-09-10T02:31:05.179Z,6.51
2023-09-10T02:31:27.809Z,6.50
2023-09-10T02:31:50.206Z,6.50
2023-09-10T02:32:12.629Z,6.50
2023-09-10T02:32:36.304Z,6.49
2023-09-10T02:32:58.939Z,6.49
2023-09-10T02:33:21.340Z,6.48
2023-09-10T02:33:43.730Z,6.47
2023-09-10T02:34:05.969Z,6.47
2023-09-10T02:34:28.307Z,6.47
2023-09-10T02:34:52.921Z,6.46
2023-09-10T02:35:15.290Z,6.46
2023-09-10T02:35:37.750Z,6.45
2023-09-10T02:36:00.388Z,6.44
2023-09-10T02:36:22.643Z,6.44
2023-09-10T02:36:44.976Z,6.44
2023-09-10T02:37:07.234Z,6.45
2023-09-10T02:37:29.634Z,6.47
2023-09-10T02:37:51.958Z,6.48
2023-09-10T02:38:14.470Z,6.50
2023-09-10T02:38:38.010Z,6.51
2023-09-10T02:39:00.717Z,6.53
2023-09-10T02:39:22.950Z,6.55
2023-09-10T02:39:45.353Z,6.56
2023-09-10T02:40:09.216Z,6.58
2023-09-10T02:40:31.471Z,6.59
2023-09-10T02:40:53.733Z,6.61
2023-09-10T02:41:16.211Z,6.61
2023-09-10T02:41:38.668Z,6.61
2023-09-10T02:42:00.925Z,6.61
2023-09-10T02:42:23.366Z,6.61
2023-09-10T02:42:45.657Z,6.60
2023-09-10T02:43:08.442Z,6.61
2023-09-10T02:43:30.882Z,6.60
2023-09-10T02:43:53.238Z,6.59
2023-09-10T02:44:15.567Z,6.59
2023-09-10T02:44:37.885Z,6.58
2023-09-10T02:45:00.250Z,6.57
2023-09-10T02:45:22.605Z,6.56
2023-09-10T02:45:44.982Z,6.56
2023-09-10T02:46:07.210Z,6.55
2023-09-10T02:46:29.689Z,6.55
2023-09-10T02:46:53.816Z,6.55
2023-09-10T02:47:16.079Z,6.54
2023-09-10T02:47:38.373Z,6.53
2023-09-10T02:48:01.056Z,6.53
2023-09-10T02:48:23.470Z,6.53
2023-09-10T02:48:45.733Z,6.53
2023-09-10T02:49:08.168Z,6.52
2023-09-10T02:49:30.388Z,6.51
2023-09-10T02:49:52.841Z,6.51
2023-09-10T02:50:15.270Z,6.51
2023-09-10T02:50:37.656Z,6.49
2023-09-10T02:51:00.260Z,6.49
2023-09-10T02:51:22.508Z,6.49
2023-09-10T02:51:44.854Z,6.48
2023-09-10T02:52:07.078Z,6.48
2023-09-10T02:52:31.851Z,6.47
2023-09-10T02:52:54.341Z,6.48
2023-09-10T02:53:16.725Z,6.47
2023-09-10T02:53:39.196Z,6.47
2023-09-10T02:54:01.798Z,6.46
2023-09-10T02:54:24.200Z,6.46
2023-09-10T02:54:46.698Z,6.45
2023-09-10T02:55:10.002Z,6.45
2023-09-10T02:55:32.616Z,6.44
2023-09-10T02:56:01.526Z,6.45
2023-09-10T02:56:23.883Z,6.45
2023-09-10T02:56:46.198Z,6.46
2023-09-10T02:57:08.884Z,6.48
2023-09-10T02:57:31.077Z,6.49
2023-09-10T02:57:53.369Z,6.52
2023-09-10T02:58:15.677Z,6.54
2023-09-10T02:58:38.352Z,6.57
2023-09-10T02:59:00.971Z,6.59
2023-09-10T02:59:24.493Z,6.60
2023-09-10T02:59:46.769Z,6.62
2023-09-10T03:00:10.036Z,6.63
2023-09-10T03:00:33.003Z,6.65
2023-09-10T03:00:55.311Z,6.66
2023-09-10T03:01:17.669Z,6.67
2023-09-10T03:01:40.160Z,6.67
2023-09-10T03:02:02.491Z,6.67
2023-09-10T03:02:24.969Z,6.66
2023-09-10T03:02:47.631Z,6.66
2023-09-10T03:03:10.141Z,6.65
2023-09-10T03:03:33.345Z,6.64
2023-09-10T03:03:55.798Z,6.63
2023-09-10T03:04:18.409Z,6.63
2023-09-10T03:04:40.935Z,6.61
2023-09-10T03:05:03.750Z,6.61
2023-09-10T03:05:26.916Z,6.60
2023-09-10T03:05:49.335Z,6.60
2023-09-10T03:06:14.830Z,6.59
2023-09-10T03:06:37.305Z,6.58
2023-09-10T03:07:02.600Z,6.57
2023-09-10T03:07:25.011Z,6.56
2023-09-10T03:07:47.293Z,6.55
2023-09-10T03:08:09.625Z,6.55
2023-09-10T03:08:37.392Z,6.54
2023-09-10T03:09:00.466Z,6.53
2023-09-10T03:09:22.666Z,6.52
2023-09-10T03:09:44.919Z,6.52
2023-09-10T03:10:07.633Z,6.51
2023-09-10T03:10:29.982Z,6.50
2023-09-10T03:10:52.620Z,6.50
2023-09-10T03:11:15.350Z,6.49
2023-09-10T03:11:39.256Z,6.48
2023-09-10T03:12:21.154Z,6.47
2023-09-10T03:12:43.645Z,6.46
2023-09-10T03:13:06.053Z,6.45
2023-09-10T03:13:28.345Z,6.44
2023-09-10T03:13:50.851Z,6.43
2023-09-10T03:14:13.575Z,6.43
2023-09-10T03:14:36.371Z,6.43
2023-09-10T03:14:58.852Z,6.43
2023-09-10T03:15:21.966Z,6.44
2023-09-10T03:15:47.928Z,6.44
2023-09-10T03:16:10.332Z,6.46
2023-09-10T03:16:33.667Z,6.47
2023-09-10T03:16:56.081Z,6.49
2023-09-10T03:17:18.831Z,6.51
2023-09-10T03:17:41.269Z,6.52
2023-09-10T03:18:03.823Z,6.53
2023-09-10T03:18:26.168Z,6.54
2023-09-10T03:18:48.463Z,6.55
2023-09-10T03:19:10.985Z,6.55
2023-09-10T03:19:33.371Z,6.55
2023-09-10T03:19:56.201Z,6.55
2023-09-10T03:20:18.583Z,6.55
2023-09-10T03:20:40.904Z,6.54
2023-09-10T03:21:04.616Z,6.53
2023-09-10T03:21:27.394Z,6.52
2023-09-10T03:21:49.792Z,6.51
2023-09-10T03:22:12.417Z,6.51
2023-09-10T03:22:35.142Z,6.49
2023-09-10T03:23:00.638Z,6.49
2023-09-10T03:23:23.171Z,6.48
2023-09-10T03:23:45.568Z,6.47
2023-09-10T03:24:07.860Z,6.47
2023-09-10T03:24:30.176Z,6.46
2023-09-10T03:24:52.557Z,6.45
2023-09-10T03:25:15.471Z,6.44
2023-09-10T03:25:39.304Z,6.44
2023-09-10T03:26:01.852Z,6.43
2023-09-10T03:26:24.914Z,6.43
2023-09-10T03:26:47.241Z,6.42
2023-09-10T03:27:09.636Z,6.42
2023-09-10T03:27:32.063Z,6.41
2023-09-10T03:27:54.505Z,6.41
2023-09-10T03:28:16.855Z,6.40
2023-09-10T03:28:39.309Z,6.41
2023-09-10T03:29:02.092Z,6.40
2023-09-10T03:29:24.634Z,6.39
2023-09-10T03:29:46.887Z,6.39
2023-09-10T03:30:09.497Z,6.39
2023-09-10T03:30:31.907Z,6.39
2023-09-10T03:30:57.678Z,6.39
2023-09-10T03:31:20.154Z,6.38
2023-09-10T03:31:42.835Z,6.38
2023-09-10T03:32:07.685Z,6.38
2023-09-10T03:32:30.619Z,6.38
2023-09-10T03:32:53.161Z,6.39
2023-09-10T03:33:16.052Z,6.39
2023-09-10T03:33:38.729Z,6.40
2023-09-10T03:34:01.158Z,6.41
2023-09-10T03:34:23.557Z,6.43
2023-09-10T03:34:45.987Z,6.45
2023-09-10T03:35:08.870Z,6.48
2023-09-10T03:35:31.495Z,6.50
2023-09-10T03:35:54.347Z,6.53
2023-09-10T03:36:16.991Z,6.55
2023-09-10T03:36:39.279Z,6.57
2023-09-10T03:37:01.794Z,6.59
2023-09-10T03:37:24.505Z,6.60
2023-09-10T03:37:46.940Z,6.61
2023-09-10T03:38:09.268Z,6.62
2023-09-10T03:38:31.983Z,6.63
2023-09-10T03:38:54.589Z,6.64
2023-09-10T03:39:16.996Z,6.64
2023-09-10T03:39:39.716Z,6.65
2023-09-10T03:40:02.600Z,6.65
2023-09-10T03:40:24.933Z,6.65
2023-09-10T03:40:47.210Z,6.65
2023-09-10T03:41:09.775Z,6.65
2023-09-10T03:41:32.091Z,6.64
2023-09-10T03:41:54.766Z,6.64
2023-09-10T03:42:17.765Z,6.64
2023-09-10T03:42:40.618Z,6.64
2023-09-10T03:43:03.258Z,6.64
2023-09-10T03:43:25.513Z,6.64
2023-09-10T03:43:48.351Z,6.64
2023-09-10T03:44:10.758Z,6.65
2023-09-10T03:44:33.221Z,6.64
2023-09-10T03:44:55.434Z,6.65
2023-09-10T03:45:17.839Z,6.64
2023-09-10T03:45:40.413Z,6.65
2023-09-10T03:46:02.742Z,6.64
2023-09-10T03:46:25.329Z,6.64
2023-09-10T03:46:48.249Z,6.66
2023-09-10T03:47:10.963Z,6.65
2023-09-10T03:47:35.352Z,6.65
2023-09-10T03:47:57.851Z,6.65
2023-09-10T03:48:20.393Z,6.65
2023-09-10T03:48:43.079Z,6.64
2023-09-10T03:49:05.680Z,6.66
2023-09-10T03:49:28.183Z,6.65
2023-09-10T03:49:50.612Z,6.66
2023-09-10T03:50:13.337Z,6.65
2023-09-10T03:50:36.303Z,6.66
2023-09-10T03:50:58.594Z,6.66
2023-09-10T03:51:20.822Z,6.66
2023-09-10T03:51:43.195Z,6.66
2023-09-10T03:52:18.497Z,6.66
2023-09-10T03:52:40.811Z,6.67
2023-09-10T03:53:03.695Z,6.67
2023-09-10T03:53:26.093Z,6.69
2023-09-10T03:53:48.468Z,6.71
2023-09-10T03:54:13.118Z,6.73
2023-09-10T03:54:35.507Z,6.76
2023-09-10T03:54:57.911Z,6.79
2023-09-10T03:55:20.369Z,6.81
2023-09-10T03:55:42.938Z,6.84
2023-09-10T03:56:05.566Z,6.86
2023-09-10T03:56:27.941Z,6.89
2023-09-10T03:56:50.144Z,6.91
2023-09-10T03:57:12.446Z,6.92
2023-09-10T03:57:34.904Z,6.93
2023-09-10T03:57:57.404Z,6.94
2023-09-10T03:58:19.671Z,6.94
2023-09-10T03:58:42.388Z,6.95
2023-09-10T03:59:04.910Z,6.95
2023-09-10T03:59:29.030Z,6.95
2023-09-10T03:59:51.542Z,6.95
2023-09-10T04:00:14.149Z,6.95
2023-09-10T04:00:36.698Z,6.95
2023-09-10T04:00:59.274Z,6.95
2023-09-10T04:01:21.747Z,6.95
2023-09-10T04:01:43.997Z,6.95
2023-09-10T04:02:06.355Z,6.95
2023-09-10T04:02:30.222Z,6.95
2023-09-10T04:02:52.696Z,6.96
2023-09-10T04:03:15.272Z,6.96
2023-09-10T04:03:37.788Z,6.96
2023-09-10T04:04:00.277Z,6.96
2023-09-10T04:04:22.679Z,6.97
2023-09-10T04:04:45.302Z,6.97
2023-09-10T04:05:09.630Z,6.97
2023-09-10T04:05:32.054Z,6.98
2023-09-10T04:05:54.416Z,6.98
2023-09-10T04:06:16.614Z,6.98
2023-09-10T04:06:38.905Z,6.99
2023-09-10T04:07:01.318Z,6.99
2023-09-10T04:07:23.597Z,7.00
2023-09-10T04:07:45.920Z,7.01
2023-09-10T04:08:08.520Z,7.01
2023-09-10T04:08:30.924Z,7.02
2023-09-10T04:08:53.162Z,7.02
2023-09-10T04:09:15.418Z,7.03
2023-09-10T04:09:37.902Z,7.04
2023-09-10T04:10:00.281Z,7.04
2023-09-10T04:10:23.305Z,7.05
2023-09-10T04:10:45.587Z,7.05
2023-09-10T04:11:10.393Z,7.06
2023-09-10T04:11:32.992Z,7.07
2023-09-10T04:11:56.069Z,7.07
2023-09-10T04:12:18.456Z,7.08
2023-09-10T04:12:40.783Z,7.08
2023-09-10T04:13:03.102Z,7.10
2023-09-10T04:13:26.466Z,7.10
2023-09-10T04:13:48.829Z,7.12
2023-09-10T04:14:11.349Z,7.12
2023-09-10T04:14:33.788Z,7.13
2023-09-10T04:14:55.997Z,7.14
2023-09-10T04:15:18.624Z,7.15
2023-09-10T04:15:40.882Z,7.16
2023-09-10T04:16:03.705Z,7.16
2023-09-10T04:16:27.716Z,7.17
2023-09-10T04:16:50.307Z,7.20
2023-09-10T04:17:18.667Z,7.22
2023-09-10T04:17:41.205Z,7.25
2023-09-10T04:18:05.356Z,7.29
2023-09-10T04:18:27.591Z,7.33
2023-09-10T04:18:49.881Z,7.36
2023-09-10T04:19:12.266Z,7.40
2023-09-10T04:19:34.482Z,7.44
2023-09-10T04:19:57.228Z,7.46
2023-09-10T04:20:22.285Z,7.50
2023-09-10T04:20:44.613Z,7.52
2023-09-10T04:21:07.729Z,7.55
2023-09-10T04:21:29.930Z,7.57
2023-09-10T04:21:52.318Z,7.58
2023-09-10T04:22:16.053Z,7.60
2023-09-10T04:22:38.483Z,7.61
2023-09-10T04:23:00.958Z,7.62
2023-09-10T04:23:23.348Z,7.63
2023-09-10T04:23:45.663Z,7.64
2023-09-10T04:24:07.939Z,7.65
2023-09-10T04:24:30.337Z,7.67
2023-09-10T04:24:52.733Z,7.68
2023-09-10T04:25:14.973Z,7.69
2023-09-10T04:25:38.053Z,7.70
2023-09-10T04:26:00.654Z,7.71
2023-09-10T04:26:23.017Z,7.72
2023-09-10T04:26:46.386Z,7.73
2023-09-10T04:27:09.063Z,7.74
2023-09-10T04:27:31.463Z,7.75
2023-09-10T04:27:54.705Z,7.76
2023-09-10T04:28:17.079Z,7.77
2023-09-10T04:28:39.801Z,7.78
2023-09-10T04:29:02.542Z,7.79
2023-09-10T04:29:26.105Z,7.81
2023-09-10T04:29:48.726Z,7.81
2023-09-10T04:30:11.048Z,7.83
2023-09-10T04:30:33.311Z,7.83
2023-09-10T04:30:55.811Z,7.85
2023-09-10T04:31:18.447Z,7.86
2023-09-10T04:31:41.571Z,7.88
2023-09-10T04:32:04.326Z,7.90
2023-09-10T04:32:26.975Z,7.93
2023-09-10T04:32:49.685Z,7.95
2023-09-10T04:33:13.288Z,7.98
2023-09-10T04:33:35.872Z,8.02
2023-09-10T04:33:58.182Z,8.05
2023-09-10T04:34:20.761Z,8.08
2023-09-10T04:34:43.493Z,8.11
2023-09-10T04:35:06.555Z,8.14
2023-09-10T04:35:29.083Z,8.16
2023-09-10T04:36:02.570Z,8.18
2023-09-10T04:36:25.257Z,8.21
2023-09-10T04:36:49.487Z,8.22
2023-09-10T04:37:13.884Z,8.24
2023-09-10T04:37:36.174Z,8.24
2023-09-10T04:37:58.562Z,8.26
2023-09-10T04:38:21.458Z,8.27
2023-09-10T04:38:43.854Z,8.28
2023-09-10T04:39:10.282Z,8.28
2023-09-10T04:39:34.944Z,8.30
2023-09-10T04:39:57.245Z,8.31
2023-09-10T04:40:20.149Z,8.31
2023-09-10T04:40:43.028Z,8.32
2023-09-10T04:41:05.596Z,8.33
2023-09-10T04:41:28.063Z,8.34
2023-09-10T04:41:51.176Z,8.35
2023-09-10T04:42:14.294Z,8.35
2023-09-10T04:42:36.710Z,8.37
2023-09-10T04:42:59.017Z,8.37
2023-09-10T04:43:21.745Z,8.38
2023-09-10T04:43:43.986Z,8.39
2023-09-10T04:44:06.747Z,8.40
2023-09-10T04:44:29.190Z,8.41
2023-09-10T04:44:51.516Z,8.41
2023-09-10T04:45:13.884Z,8.43
2023-09-10T04:45:37.412Z,8.45
2023-09-10T04:46:00.184Z,8.47
2023-09-10T04:46:22.952Z,8.50
2023-09-10T04:46:45.614Z,8.52
2023-09-10T04:47:08.222Z,8.55
2023-09-10T04:47:30.785Z,8.59
2023-09-10T04:47:53.866Z,8.61
2023-09-10T04:48:16.527Z,8.65
2023-09-10T04:48:39.162Z,8.68
2023-09-10T04:49:01.855Z,8.70
2023-09-10T04:49:24.485Z,8.72
2023-09-10T04:49:46.946Z,8.75
2023-09-10T04:50:12.313Z,8.76
2023-09-10T04:50:35.845Z,8.77
2023-09-10T04:50:58.175Z,8.78
2023-09-10T04:51:20.458Z,8.79
2023-09-10T04:51:42.888Z,8.79
2023-09-10T04:52:05.843Z,8.81
2023-09-10T04:52:28.240Z,8.81
2023-09-10T04:52:50.867Z,8.82
2023-09-10T04:53:14.676Z,8.83
2023-09-10T04:53:37.282Z,8.84
2023-09-10T04:53:59.504Z,8.85
2023-09-10T04:54:21.872Z,8.87
2023-09-10T04:54:44.180Z,8.87
2023-09-10T04:55:06.701Z,8.88
2023-09-10T04:55:29.131Z,8.89
2023-09-10T04:55:55.646Z,8.89
2023-09-10T04:56:19.719Z,8.91
2023-09-10T04:56:42.188Z,8.91
2023-09-10T04:57:04.698Z,8.92
2023-09-10T04:57:27.220Z,8.93
2023-09-10T04:57:49.793Z,8.94
2023-09-10T04:58:13.723Z,8.95
2023-09-10T04:58:36.080Z,8.96
2023-09-10T04:58:58.558Z,8.97
2023-09-10T04:59:21.210Z,8.99
2023-09-10T04:59:44.133Z,9.00
2023-09-10T05:00:07.077Z,9.01
2023-09-10T05:00:29.445Z,9.03
2023-09-10T05:00:52.190Z,9.06
2023-09-10T05:01:15.671Z,9.09
2023-09-10T05:01:38.096Z,9.11
2023-09-10T05:02:01.653Z,9.14
2023-09-10T05:02:24.428Z,9.18
2023-09-10T05:02:48.505Z,9.21
2023-09-10T05:03:11.303Z,9.24
2023-09-10T05:03:33.899Z,9.27
2023-09-10T05:03:56.449Z,9.29
2023-09-10T05:04:19.164Z,9.32
2023-09-10T05:04:41.705Z,9.33
2023-09-10T05:05:04.820Z,9.36
2023-09-10T05:05:27.369Z,9.37
2023-09-10T05:05:56.313Z,9.39
2023-09-10T05:06:21.063Z,9.41
2023-09-10T05:06:43.983Z,9.42
2023-09-10T05:07:06.274Z,9.43
2023-09-10T05:07:28.704Z,9.45
2023-09-10T05:07:51.178Z,9.46
2023-09-10T05:08:15.330Z,9.46
2023-09-10T05:08:39.688Z,9.48
2023-09-10T05:09:02.352Z,9.50